createdAt,value
2022-07-29T00:01:01.335Z,14.50
2022-07-29T00:03:28.919Z,14.53
2022-07-29T00:05:56.992Z,14.53
2022-07-29T00:08:24.573Z,14.50
2022-07-29T00:10:52.889Z,14.13
2022-07-29T00:13:32.286Z,14.43
2022-07-29T00:16:04.587Z,14.37
2022-07-29T00:18:32.766Z,14.47
2022-07-29T00:21:00.357Z,14.23
2022-07-29T00:23:27.911Z,14.50
2022-07-29T00:25:55.397Z,14.40
2022-07-29T00:28:22.913Z,14.17
2022-07-29T00:30:50.514Z,13.90
2022-07-29T00:33:19.407Z,14.40
2022-07-29T00:35:46.028Z,15.03
2022-07-29T00:38:14.430Z,14.33
2022-07-29T00:40:43.259Z,13.90
2022-07-29T00:43:12.917Z,13.87
2022-07-29T00:45:41.155Z,13.73
2022-07-29T00:48:09.782Z,13.67
2022-07-29T00:50:38.789Z,14.60
2022-07-29T00:53:09.213Z,14.03
2022-07-29T00:55:37.373Z,13.93
2022-07-29T00:58:05.171Z,13.13
2022-07-29T01:00:32.933Z,13.70
2022-07-29T01:03:00.509Z,13.47
2022-07-29T01:05:50.070Z,13.30
2022-07-29T01:08:19.580Z,13.83
2022-07-29T01:10:47.435Z,14.50
2022-07-29T01:13:16.433Z,14.27
2022-07-29T01:15:49.364Z,14.20
2022-07-29T01:18:22.309Z,15.00
2022-07-29T01:21:06.161Z,14.90
2022-07-29T01:23:48.680Z,14.97
2022-07-29T01:26:30.137Z,15.30
2022-07-29T01:29:13.539Z,14.90
2022-07-29T01:31:59.098Z,15.30
2022-07-29T01:34:32.058Z,15.00
2022-07-29T01:37:07.351Z,14.77
2022-07-29T01:39:37.458Z,15.20
2022-07-29T01:42:12.295Z,14.67
2022-07-29T01:44:43.784Z,14.07
2022-07-29T01:47:15.949Z,13.77
2022-07-29T01:49:48.664Z,13.77
2022-07-29T01:52:22.755Z,14.00
2022-07-29T01:54:55.034Z,14.07
2022-07-29T01:57:26.081Z,14.00
2022-07-29T01:59:55.607Z,14.00
2022-07-29T02:02:23.969Z,14.50
2022-07-29T02:04:51.874Z,13.77
2022-07-29T02:07:22.368Z,13.60
2022-07-29T02:09:51.748Z,13.67
2022-07-29T02:12:20.511Z,13.87
2022-07-29T02:14:50.726Z,13.80
2022-07-29T02:17:23.735Z,13.90
2022-07-29T02:19:52.026Z,13.70
2022-07-29T02:22:21.694Z,13.50
2022-07-29T02:24:50.858Z,14.07
2022-07-29T02:27:21.350Z,13.73
2022-07-29T02:29:52.325Z,13.00
2022-07-29T02:32:24.077Z,13.80
2022-07-29T02:34:53.326Z,14.37
2022-07-29T02:37:21.753Z,14.27
2022-07-29T02:39:50.704Z,14.90
2022-07-29T02:42:19.305Z,14.63
2022-07-29T02:44:46.873Z,14.10
2022-07-29T02:47:19.939Z,13.50
2022-07-29T02:49:55.995Z,13.60
2022-07-29T02:52:28.252Z,13.50
2022-07-29T02:54:58.532Z,13.93
2022-07-29T02:57:32.390Z,13.90
2022-07-29T03:00:01.222Z,13.93
2022-07-29T03:02:29.562Z,14.50
2022-07-29T03:05:02.010Z,14.60
2022-07-29T03:07:30.386Z,14.30
2022-07-29T03:09:58.864Z,14.90
2022-07-29T03:12:26.987Z,14.80
2022-07-29T03:14:55.074Z,14.60
2022-07-29T03:17:23.291Z,14.83
2022-07-29T03:19:51.132Z,14.50
2022-07-29T03:22:20.007Z,14.60
2022-07-29T03:24:47.502Z,14.40
2022-07-29T03:27:15.120Z,14.10
2022-07-29T03:29:43.704Z,13.77
2022-07-29T03:32:23.790Z,14.00
2022-07-29T03:34:52.933Z,13.70
2022-07-29T03:37:21.854Z,13.47
2022-07-29T03:39:50.175Z,14.13
2022-07-29T03:42:18.554Z,14.60
2022-07-29T03:44:47.804Z,14.00
2022-07-29T03:47:16.911Z,14.17
2022-07-29T03:49:46.552Z,14.50
2022-07-29T03:52:14.475Z,14.47
2022-07-29T03:54:43.539Z,14.67
2022-07-29T03:57:12.649Z,14.47
2022-07-29T03:59:40.906Z,14.70
2022-07-29T04:02:11.502Z,15.23
2022-07-29T04:04:39.533Z,14.90
2022-07-29T04:07:07.166Z,15.57
2022-07-29T04:09:34.761Z,14.20
2022-07-29T04:12:04.535Z,14.40
2022-07-29T04:14:32.845Z,14.33
2022-07-29T04:17:00.681Z,14.10
2022-07-29T04:19:28.383Z,14.50
2022-07-29T04:21:55.928Z,14.80
2022-07-29T04:24:23.508Z,14.70
2022-07-29T04:26:51.108Z,14.70
2022-07-29T04:29:20.813Z,14.50
2022-07-29T04:31:48.488Z,14.30
2022-07-29T04:34:16.366Z,14.57
2022-07-29T04:36:44.201Z,13.67
2022-07-29T04:39:11.949Z,13.10
2022-07-29T04:41:39.526Z,13.10
2022-07-29T04:44:07.664Z,13.30
2022-07-29T04:46:38.032Z,13.40
2022-07-29T04:49:05.844Z,13.60
2022-07-29T04:51:33.426Z,13.90
2022-07-29T04:54:01.067Z,13.47
2022-07-29T04:56:28.650Z,12.40
2022-07-29T04:58:57.921Z,13.10
2022-07-29T05:01:25.489Z,12.67
2022-07-29T05:03:59.876Z,12.47
2022-07-29T05:06:27.953Z,12.50
2022-07-29T05:08:55.483Z,12.60
2022-07-29T05:11:26.146Z,12.40
2022-07-29T05:14:00.174Z,12.67
2022-07-29T05:16:28.114Z,12.87
2022-07-29T05:18:57.158Z,13.47
2022-07-29T05:21:24.706Z,13.27
2022-07-29T05:23:52.285Z,13.70
2022-07-29T05:26:19.946Z,13.90
2022-07-29T05:28:48.934Z,14.67
2022-07-29T05:31:17.399Z,14.17
2022-07-29T05:33:44.960Z,14.97
2022-07-29T05:36:13.792Z,15.10
2022-07-29T05:38:41.369Z,14.97
2022-07-29T05:41:08.897Z,15.90
2022-07-29T05:43:36.413Z,15.40
2022-07-29T05:46:04.097Z,15.87
2022-07-29T05:48:31.624Z,16.27
2022-07-29T05:50:59.122Z,15.80
2022-07-29T05:53:28.310Z,16.10
2022-07-29T05:55:55.822Z,16.27
2022-07-29T05:58:23.431Z,16.03
2022-07-29T06:00:51.103Z,16.27
2022-07-29T06:03:18.662Z,16.50
2022-07-29T06:05:46.268Z,16.93
2022-07-29T06:08:13.758Z,16.60
2022-07-29T06:10:42.749Z,16.77
2022-07-29T06:13:10.262Z,16.53
2022-07-29T06:15:37.779Z,16.97
2022-07-29T06:18:08.470Z,17.73
2022-07-29T06:20:36.140Z,18.17
2022-07-29T06:23:05.388Z,17.60
2022-07-29T06:25:35.568Z,17.97
2022-07-29T06:28:04.752Z,18.30
2022-07-29T06:30:32.453Z,17.93
2022-07-29T06:33:01.234Z,18.40
2022-07-29T06:35:41.110Z,18.50
2022-07-29T06:38:31.174Z,18.60
2022-07-29T06:41:04.564Z,18.30
2022-07-29T06:43:36.624Z,18.40
2022-07-29T06:46:20.595Z,18.80
2022-07-29T06:48:49.029Z,19.20
2022-07-29T06:51:17.202Z,18.73
2022-07-29T06:54:00.462Z,18.80
2022-07-29T06:56:31.040Z,19.00
2022-07-29T06:59:00.270Z,19.43
2022-07-29T07:01:29.356Z,18.13
2022-07-29T07:03:57.069Z,18.83
2022-07-29T07:06:24.606Z,18.77
2022-07-29T07:08:52.114Z,18.53
2022-07-29T07:11:19.625Z,18.73
2022-07-29T07:13:48.222Z,18.60
2022-07-29T07:16:17.172Z,18.10
2022-07-29T07:18:45.992Z,18.73
2022-07-29T07:21:19.397Z,18.70
2022-07-29T07:23:47.299Z,19.10
2022-07-29T07:26:15.338Z,19.60
2022-07-29T07:28:44.270Z,19.70
2022-07-29T07:31:12.545Z,19.23
2022-07-29T07:33:41.582Z,19.10
2022-07-29T07:36:09.438Z,19.43
2022-07-29T07:38:36.973Z,19.03
2022-07-29T07:41:05.160Z,19.10
2022-07-29T07:43:32.693Z,19.03
2022-07-29T07:46:00.252Z,18.97
2022-07-29T07:48:27.763Z,18.70
2022-07-29T07:50:56.859Z,19.20
2022-07-29T07:53:24.413Z,19.60
2022-07-29T07:58:40.594Z,18.83
2022-07-29T08:01:08.947Z,18.97
2022-07-29T08:03:36.741Z,18.87
2022-07-29T08:06:06.443Z,18.98
2022-07-29T08:08:34.014Z,19.40
2022-07-29T08:11:08.301Z,18.92
2022-07-29T08:13:37.695Z,19.33
2022-07-29T08:16:13.335Z,19.20
2022-07-29T08:18:43.765Z,19.87
2022-07-29T08:21:15.165Z,19.53
2022-07-29T08:23:52.702Z,19.33
2022-07-29T08:26:21.054Z,19.73
2022-07-29T08:28:51.418Z,19.60
2022-07-29T08:31:19.589Z,20.17
2022-07-29T08:33:47.214Z,19.90
2022-07-29T08:36:16.220Z,19.63
2022-07-29T08:38:43.799Z,18.70
2022-07-29T08:41:11.289Z,15.47
2022-07-29T08:43:39.857Z,15.27
2022-07-29T08:46:07.721Z,14.80
2022-07-29T08:48:35.931Z,14.50
2022-07-29T08:51:04.405Z,15.40
2022-07-29T08:53:34.157Z,14.77
2022-07-29T08:56:02.706Z,14.70
2022-07-29T08:58:37.040Z,14.60
2022-07-29T09:01:07.503Z,14.38
2022-07-29T09:03:39.764Z,14.53
2022-07-29T09:06:07.703Z,14.50
2022-07-29T09:08:36.678Z,15.00
2022-07-29T09:11:05.630Z,15.00
2022-07-29T09:13:33.365Z,15.67
2022-07-29T09:16:04.477Z,15.53
2022-07-29T09:18:39.818Z,15.65
2022-07-29T09:21:26.483Z,15.85
2022-07-29T09:24:07.580Z,15.85
2022-07-29T09:26:36.641Z,16.10
2022-07-29T09:29:11.202Z,15.75
2022-07-29T09:31:40.254Z,15.80
2022-07-29T09:34:09.366Z,16.00
2022-07-29T09:36:41.577Z,15.90
2022-07-29T09:39:10.498Z,15.43
2022-07-29T09:41:48.934Z,15.93
2022-07-29T09:44:16.683Z,16.13
2022-07-29T09:46:55.910Z,16.05
2022-07-29T09:49:23.731Z,16.40
2022-07-29T09:52:01.999Z,16.00
2022-07-29T09:54:37.363Z,16.17
2022-07-29T09:57:06.337Z,15.25
2022-07-29T09:59:34.289Z,15.65
2022-07-29T10:02:02.082Z,15.70
2022-07-29T10:04:40.777Z,15.63
2022-07-29T10:07:08.751Z,15.90
2022-07-29T10:09:37.696Z,15.43
2022-07-29T10:12:10.150Z,16.02
2022-07-29T10:14:38.348Z,15.90
2022-07-29T10:17:07.257Z,15.32
2022-07-29T10:19:35.693Z,15.38
2022-07-29T10:22:05.216Z,15.07
2022-07-29T10:24:34.201Z,15.40
2022-07-29T10:27:04.075Z,15.07
2022-07-29T10:29:32.911Z,15.32
2022-07-29T10:32:13.122Z,14.82
2022-07-29T10:34:56.171Z,15.55
2022-07-29T10:37:35.506Z,15.60
2022-07-29T10:40:25.643Z,15.70
2022-07-29T10:42:57.602Z,15.85
2022-07-29T10:45:25.261Z,15.95
2022-07-29T10:48:05.657Z,15.55
2022-07-29T10:50:58.002Z,14.98
2022-07-29T10:53:27.111Z,15.52
2022-07-29T10:56:01.469Z,15.32
2022-07-29T10:58:35.319Z,16.55
2022-07-29T11:01:37.145Z,16.20
2022-07-29T11:04:06.110Z,16.13
2022-07-29T11:07:17.172Z,16.15
2022-07-29T11:09:46.344Z,15.20
2022-07-29T11:12:47.712Z,15.38
2022-07-29T11:15:19.775Z,15.75
2022-07-29T11:18:07.765Z,15.75
2022-07-29T11:20:45.649Z,15.68
2022-07-29T11:23:33.738Z,15.48
2022-07-29T11:26:25.437Z,15.68
2022-07-29T11:29:05.277Z,15.30
2022-07-29T11:31:43.690Z,16.08
2022-07-29T11:34:23.035Z,16.10
2022-07-29T11:37:28.247Z,15.48
2022-07-29T11:40:26.917Z,15.85
2022-07-29T11:42:55.161Z,15.82
2022-07-29T11:45:47.469Z,16.77
2022-07-29T11:48:31.628Z,15.50
2022-07-29T11:51:01.362Z,15.98
2022-07-29T11:53:33.066Z,15.25
2022-07-29T11:56:02.619Z,14.98
2022-07-29T11:58:31.334Z,15.57
2022-07-29T12:00:59.078Z,15.80
2022-07-29T12:03:36.666Z,15.60
2022-07-29T12:06:07.564Z,15.20
2022-07-29T12:08:42.020Z,15.95
2022-07-29T12:11:17.399Z,15.82
2022-07-29T12:13:49.298Z,15.80
2022-07-29T12:16:25.341Z,16.00
2022-07-29T12:18:59.540Z,15.52
2022-07-29T12:21:28.911Z,15.65
2022-07-29T12:24:04.829Z,15.63
2022-07-29T12:26:36.680Z,15.35
2022-07-29T12:29:15.581Z,15.63
2022-07-29T12:31:48.526Z,16.00
2022-07-29T12:34:17.803Z,16.05
2022-07-29T12:36:45.494Z,15.98
2022-07-29T12:39:13.541Z,16.30
2022-07-29T12:41:41.164Z,16.13
2022-07-29T12:44:08.727Z,15.52
2022-07-29T12:46:36.455Z,16.38
2022-07-29T12:49:04.442Z,15.30
2022-07-29T12:51:35.328Z,16.20
2022-07-29T12:54:08.933Z,16.35
2022-07-29T12:56:44.998Z,15.73
2022-07-29T12:59:14.837Z,15.80
2022-07-29T13:01:42.409Z,15.55
2022-07-29T13:04:09.982Z,15.95
2022-07-29T13:06:42.482Z,15.55
2022-07-29T13:09:15.418Z,15.35
2022-07-29T13:11:48.413Z,15.10
2022-07-29T13:14:32.429Z,15.52
2022-07-29T13:17:06.365Z,15.43
2022-07-29T13:19:38.838Z,15.95
2022-07-29T13:22:07.763Z,15.93
2022-07-29T13:24:35.503Z,16.00
2022-07-29T13:27:05.769Z,15.68
2022-07-29T13:29:34.021Z,16.50
2022-07-29T13:32:01.785Z,15.52
2022-07-29T13:34:29.296Z,15.45
2022-07-29T13:36:56.809Z,15.77
2022-07-29T13:39:25.781Z,15.63
2022-07-29T13:41:53.357Z,16.77
2022-07-29T13:44:21.093Z,15.63
2022-07-29T13:46:48.601Z,15.65
2022-07-29T13:49:16.181Z,16.05
2022-07-29T13:51:43.837Z,16.13
2022-07-29T13:54:11.349Z,15.93
2022-07-29T13:56:40.383Z,16.52
2022-07-29T13:59:08.554Z,15.98
2022-07-29T14:01:36.338Z,15.70
2022-07-29T14:04:04.072Z,16.02
2022-07-29T14:06:31.669Z,16.00
2022-07-29T14:08:59.280Z,16.33
2022-07-29T14:11:28.465Z,15.88
2022-07-29T14:13:57.928Z,16.50
2022-07-29T14:16:25.583Z,16.70
2022-07-29T14:18:53.157Z,15.30
2022-07-29T14:21:20.758Z,16.00
2022-07-29T14:23:48.615Z,15.43
2022-07-29T14:26:21.479Z,15.68
2022-07-29T14:28:52.241Z,15.57
2022-07-29T14:31:21.377Z,15.50
2022-07-29T14:33:49.278Z,15.90
2022-07-29T14:36:17.090Z,15.65
2022-07-29T14:38:44.792Z,16.00
2022-07-29T14:41:12.345Z,15.90
2022-07-29T14:43:40.696Z,15.77
2022-07-29T14:46:09.158Z,15.88
2022-07-29T14:48:38.307Z,16.02
2022-07-29T14:51:06.209Z,16.20
2022-07-29T14:53:34.350Z,15.85
2022-07-29T14:56:20.884Z,16.63
2022-07-29T14:58:51.943Z,15.98
2022-07-29T15:01:20.234Z,16.33
2022-07-29T15:03:49.298Z,15.95
2022-07-29T15:06:17.143Z,16.10
2022-07-29T15:08:44.720Z,15.60
2022-07-29T15:11:12.310Z,16.17
2022-07-29T15:13:40.493Z,15.65
2022-07-29T15:16:08.712Z,15.93
2022-07-29T15:18:38.544Z,14.88
2022-07-29T15:21:08.448Z,13.95
2022-07-29T15:23:37.202Z,13.70
2022-07-29T15:26:05.759Z,13.50
2022-07-29T15:28:33.303Z,14.10
2022-07-29T15:31:00.889Z,13.98
2022-07-29T15:33:28.511Z,13.73
2022-07-29T15:35:57.868Z,14.70
2022-07-29T15:38:28.796Z,14.20
2022-07-29T15:40:56.777Z,14.60
2022-07-29T15:43:24.354Z,14.38
2022-07-29T15:46:11.506Z,15.03
2022-07-29T15:48:40.980Z,14.60
2022-07-29T15:51:08.669Z,14.93
2022-07-29T15:53:37.577Z,13.80
2022-07-29T15:56:05.430Z,14.50
2022-07-29T15:58:32.932Z,14.00
2022-07-29T16:01:00.582Z,14.17
2022-07-29T16:03:28.429Z,13.87
2022-07-29T16:05:56.042Z,13.93
2022-07-29T16:08:23.603Z,14.17
2022-07-29T16:10:55.582Z,13.70
2022-07-29T16:13:23.225Z,13.87
2022-07-29T16:16:02.612Z,14.30
2022-07-29T16:18:31.112Z,14.07
2022-07-29T16:20:58.861Z,14.00
2022-07-29T16:23:26.701Z,13.00
2022-07-29T16:26:00.463Z,13.40
2022-07-29T16:28:28.543Z,13.47
2022-07-29T16:30:57.038Z,13.73
2022-07-29T16:33:24.665Z,13.90
2022-07-29T16:35:53.889Z,13.27
2022-07-29T16:38:23.615Z,13.60
2022-07-29T16:40:51.206Z,13.80
2022-07-29T16:43:22.134Z,13.40
2022-07-29T16:45:49.899Z,13.23
2022-07-29T16:48:18.117Z,12.90
2022-07-29T16:50:46.606Z,13.40
2022-07-29T16:53:14.145Z,13.43
2022-07-29T16:55:42.001Z,13.43
2022-07-29T16:58:10.374Z,12.77
2022-07-29T17:00:39.667Z,13.80
2022-07-29T17:03:09.424Z,13.37
2022-07-29T17:05:50.749Z,13.70
2022-07-29T17:08:22.362Z,13.40
2022-07-29T17:10:50.464Z,13.23
2022-07-29T17:13:17.990Z,13.93
2022-07-29T17:15:46.918Z,13.93
2022-07-29T17:18:14.435Z,13.40
2022-07-29T17:20:43.274Z,14.20
2022-07-29T17:23:10.828Z,13.27
2022-07-29T17:25:38.829Z,13.40
2022-07-29T17:28:06.621Z,13.07
2022-07-29T17:30:34.157Z,13.17
2022-07-29T17:33:03.085Z,12.67
2022-07-29T17:35:48.470Z,12.73
2022-07-29T17:38:16.113Z,13.37
2022-07-29T17:40:43.758Z,13.30
2022-07-29T17:43:11.425Z,14.17
2022-07-29T17:45:49.589Z,13.70
2022-07-29T17:48:20.119Z,14.00
2022-07-29T17:50:48.549Z,13.50
2022-07-29T17:53:16.850Z,13.70
2022-07-29T17:55:45.570Z,13.87
2022-07-29T17:58:13.515Z,12.70
2022-07-29T18:00:41.289Z,13.33
2022-07-29T18:03:09.080Z,13.70
2022-07-29T18:05:38.071Z,13.43
2022-07-29T18:08:06.231Z,14.37
2022-07-29T18:10:33.809Z,13.20
2022-07-29T18:13:02.737Z,13.70
2022-07-29T18:15:30.310Z,19.87
2022-07-29T18:17:58.147Z,28.00
2022-07-29T18:20:25.943Z,26.90
2022-07-29T18:22:54.987Z,23.93
2022-07-29T18:25:22.544Z,22.83
2022-07-29T18:27:50.204Z,22.00
2022-07-29T18:30:18.055Z,20.43
2022-07-29T18:33:04.963Z,19.50
2022-07-29T18:35:33.497Z,19.03
2022-07-29T18:38:03.296Z,19.23
2022-07-29T18:40:31.384Z,17.50
2022-07-29T18:42:58.981Z,17.93
2022-07-29T18:45:28.294Z,18.50
2022-07-29T18:47:57.295Z,17.07
2022-07-29T18:50:29.410Z,16.97
2022-07-29T18:52:58.546Z,17.33
2022-07-29T18:55:27.844Z,16.43
2022-07-29T18:57:57.224Z,16.20
2022-07-29T19:00:26.788Z,17.47
2022-07-29T19:02:54.932Z,16.70
2022-07-29T19:05:22.906Z,16.37
2022-07-29T19:07:50.545Z,16.50
2022-07-29T19:10:18.108Z,16.93
2022-07-29T19:12:46.953Z,17.17
2022-07-29T19:15:20.494Z,17.27
2022-07-29T19:17:48.540Z,17.07
2022-07-29T19:20:16.181Z,17.00
2022-07-29T19:22:43.822Z,17.10
2022-07-29T19:25:11.480Z,16.97
2022-07-29T19:27:39.029Z,17.70
2022-07-29T19:30:09.491Z,17.93
2022-07-29T19:32:37.727Z,17.50
2022-07-29T19:35:23.914Z,16.27
2022-07-29T19:37:51.776Z,17.17
2022-07-29T19:40:19.541Z,17.00
2022-07-29T19:42:51.034Z,16.90
2022-07-29T19:45:20.951Z,17.50
2022-07-29T19:47:49.176Z,18.40
2022-07-29T19:50:19.705Z,17.47
2022-07-29T19:52:48.035Z,18.07
2022-07-29T19:55:16.176Z,18.37
2022-07-29T19:57:46.989Z,18.30
2022-07-29T20:00:16.086Z,18.63
2022-07-29T20:02:45.085Z,18.57
2022-07-29T20:05:13.163Z,17.87
2022-07-29T20:07:40.952Z,18.93
2022-07-29T20:10:10.019Z,18.53
2022-07-29T20:12:38.595Z,17.73
2022-07-29T20:15:08.391Z,18.23
2022-07-29T20:17:39.867Z,18.83
2022-07-29T20:20:10.197Z,19.13
2022-07-29T20:22:38.020Z,18.63
2022-07-29T20:25:06.507Z,17.93
2022-07-29T20:27:36.706Z,18.20
2022-07-29T20:30:05.102Z,17.90
2022-07-29T20:32:34.206Z,19.10
2022-07-29T20:35:01.711Z,18.50
2022-07-29T20:37:32.128Z,18.53
2022-07-29T20:39:59.618Z,18.53
2022-07-29T20:42:27.156Z,19.20
2022-07-29T20:44:54.666Z,19.40
2022-07-29T20:47:24.261Z,18.63
2022-07-29T20:49:51.952Z,19.20
2022-07-29T20:52:19.664Z,19.03
2022-07-29T20:54:48.805Z,19.57
2022-07-29T20:57:16.471Z,19.17
2022-07-29T20:59:45.871Z,18.80
2022-07-29T21:02:13.549Z,19.20
2022-07-29T21:04:43.483Z,18.70
2022-07-29T21:07:11.058Z,18.63
2022-07-29T21:09:38.550Z,18.47
2022-07-29T21:12:10.925Z,18.43
2022-07-29T21:14:48.584Z,18.13
2022-07-29T21:17:18.655Z,17.37
2022-07-29T21:19:50.540Z,16.40
2022-07-29T21:22:18.761Z,16.63
2022-07-29T21:24:46.244Z,16.40
2022-07-29T21:27:32.579Z,16.33
2022-07-29T21:30:00.347Z,15.97
2022-07-29T21:32:30.175Z,15.47
2022-07-29T21:34:58.226Z,16.20
2022-07-29T21:37:26.001Z,16.60
2022-07-29T21:39:53.608Z,16.70
2022-07-29T21:42:22.595Z,16.97
2022-07-29T21:44:50.278Z,17.70
2022-07-29T21:47:17.782Z,17.90
2022-07-29T21:49:46.334Z,17.37
2022-07-29T21:52:14.188Z,17.23
2022-07-29T21:54:42.655Z,17.63
2022-07-29T21:57:10.285Z,17.00
2022-07-29T21:59:39.173Z,17.27
2022-07-29T22:02:06.717Z,17.60
2022-07-29T22:04:36.035Z,18.07
2022-07-29T22:07:04.031Z,17.90
2022-07-29T22:09:32.027Z,18.00
2022-07-29T22:11:59.604Z,16.70
2022-07-29T22:14:27.356Z,17.10
2022-07-29T22:16:57.873Z,18.10
2022-07-29T22:19:27.341Z,17.70
2022-07-29T22:21:55.235Z,18.23
2022-07-29T22:24:22.809Z,18.07
2022-07-29T22:26:50.408Z,17.93
2022-07-29T22:29:18.980Z,18.00
2022-07-29T22:31:46.723Z,18.67
2022-07-29T22:34:15.925Z,17.60
2022-07-29T22:36:43.429Z,18.93
2022-07-29T22:39:11.021Z,18.67
2022-07-29T22:41:43.175Z,17.40
2022-07-29T22:44:10.659Z,18.03
2022-07-29T22:46:38.669Z,19.00
2022-07-29T22:49:06.274Z,18.47
2022-07-29T22:51:35.514Z,18.63
2022-07-29T22:54:03.062Z,19.33
2022-07-29T22:56:30.845Z,17.80
2022-07-29T22:58:58.893Z,18.90
2022-07-29T23:01:35.856Z,18.77
2022-07-29T23:04:06.198Z,18.93
2022-07-29T23:06:35.172Z,18.90
2022-07-29T23:09:02.741Z,19.40
2022-07-29T23:11:30.397Z,18.90
2022-07-29T23:13:58.406Z,17.97
2022-07-29T23:16:26.608Z,18.63
2022-07-29T23:18:54.623Z,18.40
2022-07-29T23:21:22.175Z,18.13
2022-07-29T23:23:51.041Z,19.53
2022-07-29T23:26:18.757Z,20.07
2022-07-29T23:28:48.073Z,20.03
2022-07-29T23:31:15.750Z,20.50
2022-07-29T23:33:43.305Z,20.13
2022-07-29T23:36:10.842Z,20.23
2022-07-29T23:38:40.805Z,20.53
2022-07-29T23:41:10.056Z,20.97
2022-07-29T23:43:38.019Z,21.77
2022-07-29T23:46:06.426Z,22.73
2022-07-29T23:48:34.891Z,22.77
2022-07-29T23:51:02.638Z,23.23
2022-07-29T23:53:30.229Z,23.03
2022-07-29T23:55:57.730Z,22.57
2022-07-29T23:58:26.603Z,23.53
